createdAt,value
2022-09-11T00:02:01.619Z,100.00
2022-09-11T00:04:33.360Z,100.00
2022-09-11T00:07:03.673Z,100.00
2022-09-11T00:09:32.385Z,100.00
2022-09-11T00:12:01.055Z,100.00
2022-09-11T00:14:30.490Z,100.00
2022-09-11T00:16:59.334Z,100.00
2022-09-11T00:19:28.850Z,100.00
2022-09-11T00:21:57.960Z,100.00
2022-09-11T00:24:28.085Z,100.00
2022-09-11T00:26:56.889Z,100.00
2022-09-11T00:29:25.701Z,100.00
2022-09-11T00:31:55.007Z,100.00
2022-09-11T00:34:23.679Z,100.00
2022-09-11T00:36:53.821Z,100.00
2022-09-11T00:39:22.648Z,100.00
2022-09-11T00:41:52.723Z,100.00
2022-09-11T00:45:01.250Z,100.00
2022-09-11T00:47:32.361Z,100.00
2022-09-11T00:50:11.135Z,100.00
2022-09-11T00:52:43.264Z,100.00
2022-09-11T00:55:15.875Z,100.00
2022-09-11T00:57:53.152Z,100.00
2022-09-11T01:00:22.422Z,100.00
2022-09-11T01:02:54.881Z,100.00
2022-09-11T01:05:24.976Z,100.00
2022-09-11T01:07:55.803Z,100.00
2022-09-11T01:10:35.470Z,100.00
2022-09-11T01:13:14.544Z,100.00
2022-09-11T01:15:49.092Z,100.00
2022-09-11T01:18:27.205Z,100.00
2022-09-11T01:21:13.420Z,100.00
2022-09-11T01:24:02.371Z,100.00
2022-09-11T01:26:54.461Z,100.00
2022-09-11T01:29:30.591Z,100.00
2022-09-11T01:32:06.940Z,100.00
2022-09-11T01:34:44.332Z,100.00
2022-09-11T01:37:18.548Z,100.00
2022-09-11T01:39:56.630Z,100.00
2022-09-11T01:42:30.320Z,100.00
2022-09-11T01:45:01.890Z,100.00
2022-09-11T01:47:34.741Z,100.00
2022-09-11T01:50:07.890Z,100.00
2022-09-11T01:52:38.318Z,100.00
2022-09-11T01:55:13.624Z,100.00
2022-09-11T01:57:49.602Z,100.00
2022-09-11T02:00:20.226Z,100.00
2022-09-11T02:02:59.581Z,100.00
2022-09-11T02:05:33.878Z,100.00
2022-09-11T02:08:07.851Z,100.00
2022-09-11T02:10:44.125Z,100.00
2022-09-11T02:13:16.452Z,100.00
2022-09-11T02:15:52.277Z,100.00
2022-09-11T02:18:27.015Z,100.00
2022-09-11T02:20:55.860Z,100.00
2022-09-11T02:23:24.775Z,100.00
2022-09-11T02:25:54.531Z,100.00
2022-09-11T02:28:23.260Z,100.00
2022-09-11T02:30:54.254Z,100.00
2022-09-11T02:33:33.465Z,100.00
2022-09-11T02:36:17.348Z,100.00
2022-09-11T02:39:02.135Z,100.00
2022-09-11T02:41:44.114Z,100.00
2022-09-11T02:44:24.004Z,100.00
2022-09-11T02:47:07.328Z,100.00
2022-09-11T02:49:46.220Z,100.00
2022-09-11T02:52:29.149Z,100.00
2022-09-11T02:55:00.722Z,100.00
2022-09-11T02:57:35.178Z,100.00
2022-09-11T03:00:07.174Z,100.00
2022-09-11T03:02:40.919Z,100.00
2022-09-11T03:05:11.370Z,100.00
2022-09-11T03:07:42.407Z,100.00
2022-09-11T03:10:12.525Z,100.00
2022-09-11T03:12:41.681Z,100.00
2022-09-11T03:15:14.218Z,100.00
2022-09-11T03:17:46.114Z,100.00
2022-09-11T03:20:16.805Z,100.00
2022-09-11T03:22:45.532Z,100.00
2022-09-11T03:25:15.247Z,100.00
2022-09-11T03:27:45.171Z,100.00
2022-09-11T03:30:15.640Z,100.00
2022-09-11T03:32:45.727Z,100.00
2022-09-11T03:35:15.340Z,100.00
2022-09-11T03:37:44.512Z,100.00
2022-09-11T03:40:13.240Z,100.00
2022-09-11T03:42:42.047Z,100.00
2022-09-11T03:45:11.430Z,100.00
2022-09-11T03:47:41.051Z,100.00
2022-09-11T03:50:12.610Z,100.00
2022-09-11T03:52:41.398Z,100.00
2022-09-11T03:55:10.734Z,100.00
2022-09-11T03:57:39.933Z,100.00
2022-09-11T04:00:10.221Z,100.00
2022-09-11T04:02:55.819Z,100.00
2022-09-11T04:05:39.205Z,100.00
2022-09-11T04:08:08.058Z,100.00
2022-09-11T04:10:37.618Z,100.00
2022-09-11T04:13:06.689Z,100.00
2022-09-11T04:15:35.798Z,100.00
2022-09-11T04:18:07.339Z,100.00
2022-09-11T04:20:41.436Z,100.00
2022-09-11T04:23:10.338Z,100.00
2022-09-11T04:25:39.116Z,100.00
2022-09-11T04:28:09.115Z,100.00
2022-09-11T04:30:38.942Z,100.00
2022-09-11T04:33:08.308Z,100.00
2022-09-11T04:35:41.218Z,100.00
2022-09-11T04:38:09.883Z,100.00
2022-09-11T04:40:40.320Z,100.00
2022-09-11T04:43:09.633Z,100.00
2022-09-11T04:45:40.628Z,100.00
2022-09-11T04:48:12.893Z,100.00
2022-09-11T04:50:43.153Z,100.00
2022-09-11T04:53:25.243Z,100.00
2022-09-11T04:55:54.124Z,100.00
2022-09-11T04:58:22.992Z,100.00
2022-09-11T05:00:53.165Z,100.00
2022-09-11T05:03:22.051Z,100.00
2022-09-11T05:05:52.315Z,100.00
2022-09-11T05:08:21.390Z,100.00
2022-09-11T05:10:50.321Z,100.00
2022-09-11T05:13:19.022Z,100.00
2022-09-11T05:15:48.431Z,100.00
2022-09-11T05:18:19.323Z,100.00
2022-09-11T05:20:48.082Z,100.00
2022-09-11T05:23:18.338Z,100.00
2022-09-11T05:25:47.323Z,100.00
2022-09-11T05:28:16.521Z,100.00
2022-09-11T05:30:46.172Z,100.00
2022-09-11T05:33:15.015Z,100.00
2022-09-11T05:35:44.372Z,100.00
2022-09-11T05:38:13.311Z,100.00
2022-09-11T05:40:47.069Z,100.00
2022-09-11T05:43:16.164Z,100.00
2022-09-11T05:45:45.998Z,100.00
2022-09-11T05:48:15.887Z,100.00
2022-09-11T05:50:44.949Z,100.00
2022-09-11T05:53:14.069Z,100.00
2022-09-11T05:55:43.442Z,100.00
2022-09-11T05:58:13.724Z,100.00
2022-09-11T06:00:45.326Z,100.00
2022-09-11T06:03:15.619Z,100.00
2022-09-11T06:05:45.060Z,100.00
2022-09-11T06:08:13.929Z,100.00
2022-09-11T06:10:47.769Z,100.00
2022-09-11T06:13:19.231Z,100.00
2022-09-11T06:15:51.118Z,100.00
2022-09-11T06:18:20.149Z,100.00
2022-09-11T06:20:59.810Z,100.00
2022-09-11T06:23:30.733Z,100.00
2022-09-11T06:26:04.817Z,100.00
2022-09-11T06:28:39.078Z,100.00
2022-09-11T06:31:09.637Z,100.00
2022-09-11T06:33:40.886Z,100.00
2022-09-11T06:36:12.430Z,100.00
2022-09-11T06:38:42.495Z,100.00
2022-09-11T06:41:16.069Z,100.00
2022-09-11T06:43:47.233Z,100.00
2022-09-11T06:46:20.157Z,100.00
2022-09-11T06:48:52.615Z,100.00
2022-09-11T06:51:27.285Z,100.00
2022-09-11T06:53:58.284Z,100.00
2022-09-11T06:56:32.633Z,100.00
2022-09-11T06:59:04.156Z,100.00
2022-09-11T07:01:34.711Z,100.00
2022-09-11T07:04:05.044Z,100.00
2022-09-11T07:06:38.767Z,100.00
2022-09-11T07:09:07.676Z,100.00
2022-09-11T07:11:45.126Z,100.00
2022-09-11T07:14:21.270Z,100.00
2022-09-11T07:16:55.520Z,100.00
2022-09-11T07:19:26.407Z,100.00
2022-09-11T07:21:55.333Z,100.00
2022-09-11T07:24:26.869Z,100.00
2022-09-11T07:26:56.709Z,100.00
2022-09-11T07:29:34.669Z,100.00
2022-09-11T07:32:04.156Z,100.00
2022-09-11T07:34:33.200Z,100.00
2022-09-11T07:37:07.273Z,100.00
2022-09-11T07:39:38.371Z,100.00
2022-09-11T07:42:12.475Z,100.00
2022-09-11T07:44:45.614Z,100.00
2022-09-11T07:47:14.910Z,100.00
2022-09-11T07:49:48.273Z,100.00
2022-09-11T07:52:18.629Z,100.00
2022-09-11T07:54:53.654Z,100.00
2022-09-11T07:57:26.170Z,100.00
2022-09-11T07:59:56.450Z,100.00
2022-09-11T08:02:25.306Z,100.00
2022-09-11T08:04:55.478Z,100.00
2022-09-11T08:07:26.437Z,100.00
2022-09-11T08:10:10.425Z,100.00
2022-09-11T08:12:44.473Z,100.00
2022-09-11T08:15:14.948Z,100.00
2022-09-11T08:17:43.816Z,100.00
2022-09-11T08:20:13.908Z,100.00
2022-09-11T08:22:43.428Z,100.00
2022-09-11T08:25:12.313Z,100.00
2022-09-11T08:27:41.130Z,100.00
2022-09-11T08:30:12.440Z,100.00
2022-09-11T08:32:42.799Z,99.52
2022-09-11T08:35:11.880Z,99.17
2022-09-11T08:37:41.512Z,99.32
2022-09-11T08:40:11.971Z,99.98
2022-09-11T08:42:44.440Z,99.74
2022-09-11T08:45:17.633Z,98.57
2022-09-11T08:47:52.913Z,98.07
2022-09-11T08:50:25.895Z,95.81
2022-09-11T08:52:56.740Z,96.12
2022-09-11T08:55:32.355Z,93.64
2022-09-11T08:58:12.653Z,95.33
2022-09-11T09:00:48.313Z,94.34
2022-09-11T09:03:34.835Z,95.12
2022-09-11T09:06:27.002Z,91.40
2022-09-11T09:09:05.795Z,92.63
2022-09-11T09:11:40.312Z,94.82
2022-09-11T09:14:26.651Z,95.97
2022-09-11T09:17:01.953Z,97.45
2022-09-11T09:19:41.314Z,98.32
2022-09-11T09:22:17.575Z,100.00
2022-09-11T09:24:50.379Z,100.00
2022-09-11T09:27:22.645Z,100.00
2022-09-11T09:29:55.903Z,100.00
2022-09-11T09:32:30.327Z,99.82
2022-09-11T09:35:04.120Z,100.00
2022-09-11T09:37:33.295Z,95.20
2022-09-11T09:40:09.414Z,96.52
2022-09-11T09:43:05.269Z,95.38
2022-09-11T09:45:43.977Z,94.35
2022-09-11T09:48:13.804Z,93.75
2022-09-11T09:50:45.434Z,91.35
2022-09-11T09:53:28.313Z,90.12
2022-09-11T09:56:00.132Z,89.40
2022-09-11T09:58:33.620Z,88.46
2022-09-11T10:01:02.702Z,86.41
2022-09-11T10:03:31.736Z,87.99
2022-09-11T10:06:02.998Z,84.67
2022-09-11T10:08:34.665Z,83.92
2022-09-11T10:11:05.751Z,82.94
2022-09-11T10:13:38.634Z,84.67
2022-09-11T10:16:21.859Z,86.06
2022-09-11T10:18:51.241Z,83.26
2022-09-11T10:21:29.737Z,87.62
2022-09-11T10:24:00.677Z,87.19
2022-09-11T10:26:36.248Z,85.64
2022-09-11T10:29:10.719Z,84.05
2022-09-11T10:31:42.435Z,83.06
2022-09-11T10:34:17.526Z,83.80
2022-09-11T10:36:56.007Z,80.63
2022-09-11T10:39:27.923Z,80.03
2022-09-11T10:41:59.768Z,79.08
2022-09-11T10:44:29.880Z,80.14
2022-09-11T10:47:06.717Z,83.73
2022-09-11T10:49:36.245Z,80.20
2022-09-11T10:52:20.130Z,84.58
2022-09-11T10:55:00.286Z,84.95
2022-09-11T10:57:35.454Z,87.55
2022-09-11T11:00:13.722Z,84.85
2022-09-11T11:02:45.489Z,83.63
2022-09-11T11:05:21.990Z,88.81
2022-09-11T11:08:28.280Z,87.62
2022-09-11T11:11:13.078Z,84.68
2022-09-11T11:14:04.874Z,86.66
2022-09-11T11:16:47.273Z,83.75
2022-09-11T11:19:38.237Z,82.96
2022-09-11T11:22:14.834Z,79.61
2022-09-11T11:24:58.590Z,82.28
2022-09-11T11:27:43.455Z,79.25
2022-09-11T11:30:18.016Z,81.38
2022-09-11T11:33:08.477Z,80.77
2022-09-11T11:35:46.158Z,80.69
2022-09-11T11:38:24.476Z,80.22
2022-09-11T11:41:01.390Z,80.00
2022-09-11T11:43:35.570Z,83.03
2022-09-11T11:46:12.066Z,83.69
2022-09-11T11:48:47.843Z,79.89
2022-09-11T11:51:19.724Z,79.17
2022-09-11T11:53:55.757Z,81.53
2022-09-11T11:56:34.898Z,80.68
2022-09-11T11:59:13.354Z,80.06
2022-09-11T12:01:48.265Z,78.53
2022-09-11T12:04:30.058Z,79.48
2022-09-11T12:07:00.533Z,79.41
2022-09-11T12:09:33.885Z,79.17
2022-09-11T12:12:08.937Z,79.05
2022-09-11T12:14:38.558Z,77.19
2022-09-11T12:17:27.561Z,77.44
2022-09-11T12:20:17.500Z,76.07
2022-09-11T12:22:48.848Z,77.44
2022-09-11T12:25:53.884Z,77.70
2022-09-11T12:28:26.332Z,78.27
2022-09-11T12:31:07.658Z,78.34
2022-09-11T12:33:56.600Z,71.59
2022-09-11T12:36:49.464Z,74.23
2022-09-11T12:39:31.457Z,72.63
2022-09-11T12:42:37.202Z,72.18
2022-09-11T12:45:32.345Z,70.42
2022-09-11T12:48:10.350Z,68.82
2022-09-11T12:50:40.395Z,66.42
2022-09-11T12:53:18.632Z,65.54
2022-09-11T12:55:56.629Z,63.43
2022-09-11T12:58:36.578Z,65.34
2022-09-11T13:01:19.077Z,64.24
2022-09-11T13:03:54.506Z,67.01
2022-09-11T13:06:25.868Z,69.43
2022-09-11T13:08:59.921Z,69.48
2022-09-11T13:11:40.716Z,70.24
2022-09-11T13:14:52.866Z,72.95
2022-09-11T13:17:30.673Z,75.66
2022-09-11T13:20:22.867Z,76.63
2022-09-11T13:22:58.285Z,76.62
2022-09-11T13:25:28.178Z,77.88
2022-09-11T13:28:01.340Z,77.41
2022-09-11T13:30:30.546Z,77.98
2022-09-11T13:33:07.802Z,77.24
2022-09-11T13:35:40.403Z,78.61
2022-09-11T13:38:14.687Z,79.78
2022-09-11T13:40:47.775Z,80.73
2022-09-11T13:43:19.759Z,79.44
2022-09-11T13:45:50.276Z,79.83
2022-09-11T13:48:25.106Z,78.61
2022-09-11T13:50:54.529Z,77.42
2022-09-11T13:53:24.570Z,79.54
2022-09-11T13:55:53.509Z,79.00
2022-09-11T13:58:26.296Z,80.28
2022-09-11T14:00:55.781Z,81.21
2022-09-11T14:03:29.456Z,81.91
2022-09-11T14:06:00.738Z,82.33
2022-09-11T14:08:34.625Z,80.99
2022-09-11T14:11:11.157Z,81.64
2022-09-11T14:13:48.033Z,85.01
2022-09-11T14:16:25.481Z,86.22
2022-09-11T14:19:00.366Z,83.78
2022-09-11T14:21:34.680Z,83.58
2022-09-11T14:24:07.355Z,84.86
2022-09-11T14:26:43.048Z,83.64
2022-09-11T14:29:25.943Z,84.60
2022-09-11T14:31:56.109Z,85.19
2022-09-11T14:34:28.070Z,84.32
2022-09-11T14:37:00.360Z,83.26
2022-09-11T14:39:36.717Z,84.70
2022-09-11T14:42:09.720Z,85.61
2022-09-11T14:44:41.440Z,86.65
2022-09-11T14:47:17.410Z,87.98
2022-09-11T14:49:48.601Z,89.25
2022-09-11T14:52:20.467Z,89.42
2022-09-11T14:54:50.071Z,91.44
2022-09-11T14:57:21.260Z,91.23
2022-09-11T14:59:50.778Z,87.65
2022-09-11T15:02:21.858Z,89.01
2022-09-11T15:04:53.660Z,90.53
2022-09-11T15:07:23.493Z,89.77
2022-09-11T15:09:53.641Z,90.98
2022-09-11T15:12:23.648Z,92.55
2022-09-11T15:14:57.273Z,92.84
2022-09-11T15:17:31.774Z,92.50
2022-09-11T15:20:02.558Z,91.62
2022-09-11T15:22:32.825Z,94.15
2022-09-11T15:25:02.111Z,94.11
2022-09-11T15:27:31.908Z,92.74
2022-09-11T15:30:00.912Z,93.13
2022-09-11T15:32:32.192Z,94.25
2022-09-11T15:35:02.451Z,95.58
2022-09-11T15:37:31.988Z,97.42
2022-09-11T15:40:01.593Z,100.00
2022-09-11T15:42:38.847Z,100.00
2022-09-11T15:45:09.964Z,100.00
2022-09-11T15:47:38.925Z,100.00
2022-09-11T15:50:10.304Z,100.00
2022-09-11T15:52:41.067Z,100.00
2022-09-11T15:55:10.914Z,100.00
2022-09-11T15:57:39.783Z,100.00
2022-09-11T16:00:10.329Z,100.00
2022-09-11T16:02:43.650Z,100.00
2022-09-11T16:05:14.640Z,100.00
2022-09-11T16:07:43.549Z,100.00
2022-09-11T16:10:12.611Z,100.00
2022-09-11T16:12:41.643Z,100.00
2022-09-11T16:15:12.115Z,100.00
2022-09-11T16:17:41.036Z,100.00
2022-09-11T16:20:11.641Z,100.00
2022-09-11T16:22:41.971Z,100.00
2022-09-11T16:25:11.264Z,100.00
2022-09-11T16:27:40.260Z,100.00
2022-09-11T16:30:42.703Z,100.00
2022-09-11T16:33:01.977Z,100.00
2022-09-11T16:35:32.345Z,100.00
2022-09-11T16:38:02.784Z,100.00
2022-09-11T16:40:32.049Z,100.00
2022-09-11T16:43:01.064Z,100.00
2022-09-11T16:45:29.938Z,100.00
2022-09-11T16:48:00.164Z,100.00
2022-09-11T16:50:29.402Z,100.00
2022-09-11T16:52:59.224Z,100.00
2022-09-11T16:55:29.490Z,100.00
2022-09-11T16:57:59.130Z,100.00
2022-09-11T17:00:28.042Z,100.00
2022-09-11T17:02:56.941Z,100.00
2022-09-11T17:05:25.906Z,100.00
2022-09-11T17:07:54.773Z,100.00
2022-09-11T17:10:23.800Z,100.00
2022-09-11T17:12:55.828Z,100.00
2022-09-11T17:15:25.640Z,100.00
2022-09-11T17:17:54.900Z,100.00
2022-09-11T17:20:23.813Z,100.00
2022-09-11T17:22:58.104Z,100.00
2022-09-11T17:25:27.295Z,100.00
2022-09-11T17:27:57.705Z,100.00
2022-09-11T17:30:26.704Z,100.00
2022-09-11T17:32:56.213Z,100.00
2022-09-11T17:35:25.682Z,100.00
2022-09-11T17:37:54.485Z,100.00
2022-09-11T17:40:23.282Z,100.00
2022-09-11T17:42:52.210Z,100.00
2022-09-11T17:45:23.310Z,100.00
2022-09-11T17:47:52.874Z,100.00
2022-09-11T17:50:21.884Z,100.00
2022-09-11T17:52:50.959Z,100.00
2022-09-11T17:55:19.937Z,100.00
2022-09-11T17:57:53.799Z,100.00
2022-09-11T18:00:24.021Z,100.00
2022-09-11T18:02:54.279Z,100.00
2022-09-11T18:05:23.069Z,100.00
2022-09-11T18:07:52.201Z,100.00
2022-09-11T18:10:20.999Z,100.00
2022-09-11T18:12:50.217Z,100.00
2022-09-11T18:15:19.285Z,100.00
2022-09-11T18:17:49.661Z,100.00
2022-09-11T18:20:18.587Z,100.00
2022-09-11T18:22:49.706Z,100.00
2022-09-11T18:25:21.997Z,100.00
2022-09-11T18:27:51.436Z,100.00
2022-09-11T18:30:20.922Z,100.00
2022-09-11T18:32:51.011Z,100.00
2022-09-11T18:35:20.068Z,100.00
2022-09-11T18:37:48.938Z,100.00
2022-09-11T18:40:18.078Z,100.00
2022-09-11T18:42:46.944Z,100.00
2022-09-11T18:45:17.127Z,100.00
2022-09-11T18:47:53.015Z,100.00
2022-09-11T18:50:22.099Z,100.00
2022-09-11T18:52:52.597Z,100.00
2022-09-11T18:55:22.955Z,100.00
2022-09-11T18:57:52.288Z,100.00
2022-09-11T19:00:22.402Z,100.00
2022-09-11T19:02:57.717Z,100.00
2022-09-11T19:05:26.557Z,100.00
2022-09-11T19:08:00.161Z,100.00
2022-09-11T19:10:30.189Z,100.00
2022-09-11T19:13:00.278Z,100.00
2022-09-11T19:15:29.906Z,100.00
2022-09-11T19:18:01.648Z,100.00
2022-09-11T19:20:30.624Z,100.00
2022-09-11T19:23:02.971Z,100.00
2022-09-11T19:25:33.824Z,100.00
2022-09-11T19:28:04.959Z,100.00
2022-09-11T19:30:33.757Z,100.00
2022-09-11T19:33:04.220Z,100.00
2022-09-11T19:35:33.078Z,100.00
2022-09-11T19:38:02.023Z,100.00
2022-09-11T19:40:30.933Z,100.00
2022-09-11T19:43:00.214Z,100.00
2022-09-11T19:45:29.537Z,100.00
2022-09-11T19:48:00.214Z,100.00
2022-09-11T19:50:34.041Z,100.00
2022-09-11T19:53:03.145Z,100.00
2022-09-11T19:55:35.381Z,100.00
2022-09-11T19:58:04.387Z,100.00
2022-09-11T20:00:33.088Z,100.00
2022-09-11T20:03:02.014Z,100.00
2022-09-11T20:05:32.300Z,100.00
2022-09-11T20:08:01.022Z,100.00
2022-09-11T20:10:30.386Z,100.00
2022-09-11T20:13:00.495Z,100.00
2022-09-11T20:15:29.892Z,100.00
2022-09-11T20:18:00.334Z,100.00
2022-09-11T20:20:29.308Z,100.00
2022-09-11T20:23:00.467Z,100.00
2022-09-11T20:25:29.583Z,100.00
2022-09-11T20:28:00.523Z,100.00
2022-09-11T20:30:32.709Z,100.00
2022-09-11T20:33:02.231Z,100.00
2022-09-11T20:35:31.118Z,100.00
2022-09-11T20:38:01.458Z,100.00
2022-09-11T20:40:30.164Z,100.00
2022-09-11T20:43:00.470Z,100.00
2022-09-11T20:45:29.460Z,100.00
2022-09-11T20:47:58.220Z,100.00
2022-09-11T20:50:26.984Z,100.00
2022-09-11T20:52:55.678Z,100.00
2022-09-11T20:55:25.750Z,100.00
2022-09-11T20:57:54.393Z,100.00
2022-09-11T21:00:23.421Z,100.00
2022-09-11T21:02:52.097Z,100.00
2022-09-11T21:05:20.786Z,100.00
2022-09-11T21:07:49.639Z,100.00
2022-09-11T21:10:18.381Z,100.00
2022-09-11T21:12:48.552Z,100.00
2022-09-11T21:15:17.421Z,100.00
2022-09-11T21:17:46.105Z,100.00
2022-09-11T21:20:15.383Z,100.00
2022-09-11T21:22:44.067Z,100.00
2022-09-11T21:25:13.014Z,100.00
2022-09-11T21:27:41.857Z,100.00
2022-09-11T21:30:13.525Z,100.00
2022-09-11T21:32:42.466Z,100.00
2022-09-11T21:35:11.193Z,100.00
2022-09-11T21:37:39.894Z,100.00
2022-09-11T21:40:10.060Z,100.00
2022-09-11T21:42:39.231Z,100.00
2022-09-11T21:45:08.892Z,100.00
2022-09-11T21:47:39.011Z,100.00
2022-09-11T21:50:08.882Z,100.00
2022-09-11T21:52:37.623Z,100.00
2022-09-11T21:55:07.393Z,100.00
2022-09-11T21:57:36.091Z,100.00
2022-09-11T22:00:08.871Z,100.00
2022-09-11T22:02:39.053Z,100.00
2022-09-11T22:05:08.588Z,100.00
2022-09-11T22:07:37.770Z,100.00
2022-09-11T22:10:08.533Z,100.00
2022-09-11T22:12:37.661Z,100.00
2022-09-11T22:15:07.809Z,100.00
2022-09-11T22:17:36.477Z,100.00
2022-09-11T22:20:07.670Z,100.00
2022-09-11T22:22:38.269Z,100.00
2022-09-11T22:25:08.334Z,100.00
2022-09-11T22:27:37.650Z,100.00
2022-09-11T22:30:08.771Z,100.00
2022-09-11T22:32:37.913Z,100.00
2022-09-11T22:35:08.610Z,100.00
2022-09-11T22:37:37.220Z,100.00
2022-09-11T22:40:07.303Z,100.00
2022-09-11T22:42:35.963Z,100.00
2022-09-11T22:45:05.144Z,100.00
2022-09-11T22:47:34.845Z,100.00
2022-09-11T22:50:03.584Z,100.00
2022-09-11T22:52:33.847Z,100.00
2022-09-11T22:55:02.558Z,100.00
2022-09-11T22:57:32.712Z,100.00
2022-09-11T23:00:01.436Z,100.00
2022-09-11T23:02:32.490Z,100.00
2022-09-11T23:05:18.669Z,100.00
2022-09-11T23:07:51.356Z,100.00
2022-09-11T23:10:23.822Z,100.00
2022-09-11T23:12:52.820Z,100.00
2022-09-11T23:15:21.660Z,100.00
2022-09-11T23:17:50.436Z,100.00
2022-09-11T23:20:19.680Z,100.00
2022-09-11T23:22:48.315Z,100.00
2022-09-11T23:25:18.697Z,100.00
2022-09-11T23:27:47.397Z,100.00
2022-09-11T23:30:16.302Z,100.00
2022-09-11T23:32:45.110Z,100.00
2022-09-11T23:35:14.223Z,100.00
2022-09-11T23:37:45.452Z,100.00
2022-09-11T23:40:14.326Z,100.00
2022-09-11T23:42:44.555Z,100.00
2022-09-11T23:45:13.965Z,100.00
2022-09-11T23:47:42.682Z,100.00
2022-09-11T23:50:11.687Z,100.00
2022-09-11T23:52:40.363Z,100.00
2022-09-11T23:55:09.786Z,100.00
2022-09-11T23:57:39.887Z,100.00
